createdAt,value
2018-09-16T00:00:49.201Z,23.1
2018-09-16T00:01:39.261Z,23.1
2018-09-16T00:02:29.969Z,23.1
2018-09-16T00:03:19.461Z,23.1
2018-09-16T00:04:09.494Z,23.1
2018-09-16T00:04:59.546Z,23.1
2018-09-16T00:05:49.620Z,23.1
2018-09-16T00:06:39.386Z,23.1
2018-09-16T00:07:29.741Z,23.1
2018-09-16T00:08:19.546Z,23.1
2018-09-16T00:09:10.165Z,23.1
2018-09-16T00:10:14.883Z,23.1
2018-09-16T00:10:50.233Z,23.1
2018-09-16T00:11:39.228Z,23.1
2018-09-16T00:12:30.699Z,23.1
2018-09-16T00:13:20.203Z,23.1
2018-09-16T00:14:10.578Z,23.1
2018-09-16T00:15:00.018Z,23.1
2018-09-16T00:15:50.241Z,23.1
2018-09-16T00:16:39.575Z,23.1
2018-09-16T00:17:30.205Z,23.1
2018-09-16T00:18:20.542Z,23.1
2018-09-16T00:19:09.798Z,23.1
2018-09-16T00:20:01.272Z,23.1
2018-09-16T00:20:50.785Z,23.1
2018-09-16T00:21:40.579Z,23.1
2018-09-16T00:22:30.912Z,23.1
2018-09-16T00:23:20.567Z,23.1
2018-09-16T00:24:10.134Z,23.1
2018-09-16T00:25:01.661Z,23.1
2018-09-16T00:25:52.206Z,23.1
2018-09-16T00:26:40.385Z,23.1
2018-09-16T00:27:30.712Z,23.1
2018-09-16T00:28:21.618Z,23.1
2018-09-16T00:29:11.986Z,23.1
2018-09-16T00:30:01.155Z,23.1
2018-09-16T00:30:51.496Z,23.1
2018-09-16T00:31:41.557Z,23.1
2018-09-16T00:32:31.951Z,23.1
2018-09-16T00:33:20.822Z,23.1
2018-09-16T00:34:11.215Z,23.1
2018-09-16T00:35:01.603Z,23.1
2018-09-16T00:35:52.193Z,23.1
2018-09-16T00:36:42.497Z,23.1
2018-09-16T00:56:12.222Z,23
2018-09-16T00:57:01.827Z,23
2018-09-16T00:57:51.620Z,23
2018-09-16T00:58:41.915Z,23
2018-09-16T00:59:32.289Z,23
2018-09-16T01:00:22.349Z,23
2018-09-16T01:01:11.807Z,23
2018-09-16T01:02:02.187Z,23
2018-09-16T01:02:51.672Z,23
2018-09-16T01:03:41.409Z,23
2018-09-16T01:04:32.450Z,23
2018-09-16T01:05:22.142Z,22.9
2018-09-16T01:06:12.517Z,23
2018-09-16T01:07:02.506Z,23
2018-09-16T01:07:52.891Z,23
2018-09-16T01:08:42.726Z,23
2018-09-16T01:09:32.436Z,23
2018-09-16T01:10:21.934Z,23
2018-09-16T01:11:13.377Z,23
2018-09-16T01:12:02.369Z,22.9
2018-09-16T01:12:52.221Z,22.9
2018-09-16T01:13:42.806Z,23
2018-09-16T01:14:32.254Z,22.9
2018-09-16T01:15:22.326Z,22.9
2018-09-16T01:16:12.659Z,22.9
2018-09-16T01:17:03.309Z,22.9
2018-09-16T01:17:53.422Z,22.9
2018-09-16T01:18:42.932Z,22.9
2018-09-16T01:19:32.976Z,22.9
2018-09-16T01:20:22.669Z,22.9
2018-09-16T01:21:13.969Z,22.9
2018-09-16T01:22:03.183Z,22.9
2018-09-16T01:22:52.596Z,22.9
2018-09-16T01:23:42.973Z,22.9
2018-09-16T01:24:33.917Z,22.9
2018-09-16T01:25:23.164Z,22.9
2018-09-16T01:26:14.221Z,22.9
2018-09-16T01:27:04.105Z,22.9
2018-09-16T01:27:53.911Z,22.9
2018-09-16T01:28:43.708Z,22.9
2018-09-16T01:29:33.788Z,22.9
2018-09-16T01:30:24.345Z,22.9
2018-09-16T01:31:13.978Z,22.9
2018-09-16T01:32:04.247Z,22.9
2018-09-16T01:32:54.525Z,22.9
2018-09-16T01:33:43.467Z,22.9
2018-09-16T01:34:34.130Z,22.9
2018-09-16T01:35:24.752Z,22.9
2018-09-16T01:36:13.927Z,22.9
2018-09-16T01:37:04.563Z,22.9
2018-09-16T01:37:54.895Z,22.9
2018-09-16T01:38:44.994Z,22.9
2018-09-16T01:39:34.439Z,22.9
2018-09-16T01:40:24.777Z,22.9
2018-09-16T01:41:15.860Z,22.9
2018-09-16T01:42:05.212Z,22.9
2018-09-16T01:42:55.275Z,22.9
2018-09-16T01:43:45.045Z,22.9
2018-09-16T01:44:35.099Z,22.9
2018-09-16T01:45:25.180Z,22.9
2018-09-16T01:46:15.460Z,22.9
2018-09-16T01:47:06.024Z,22.9
2018-09-16T01:47:55.352Z,22.9
2018-09-16T01:48:44.913Z,22.9
2018-09-16T01:49:35.209Z,22.9
2018-09-16T01:50:24.997Z,22.9
2018-09-16T01:51:16.486Z,22.9
2018-09-16T01:52:06.685Z,22.9
2018-09-16T01:52:55.801Z,22.9
2018-09-16T01:53:45.251Z,22.9
2018-09-16T01:54:35.581Z,22.9
2018-09-16T01:55:26.219Z,22.9
2018-09-16T01:56:15.943Z,22.9
2018-09-16T01:57:06.310Z,22.9
2018-09-16T01:57:55.275Z,22.9
2018-09-16T01:58:46.831Z,22.9
2018-09-16T01:59:36.551Z,22.9
2018-09-16T02:00:26.026Z,22.9
2018-09-16T02:01:16.346Z,22.9
2018-09-16T02:02:06.994Z,22.9
2018-09-16T02:02:56.833Z,22.9
2018-09-16T02:03:46.904Z,22.9
2018-09-16T02:04:36.889Z,22.9
2018-09-16T02:05:25.809Z,22.9
2018-09-16T02:06:16.469Z,22.8
2018-09-16T02:07:06.791Z,22.8
2018-09-16T02:07:56.933Z,22.8
2018-09-16T02:08:47.234Z,22.8
2018-09-16T02:09:36.433Z,22.8
2018-09-16T02:10:26.489Z,22.8
2018-09-16T02:11:17.718Z,22.8
2018-09-16T02:12:07.247Z,22.8
2018-09-16T02:12:57.505Z,22.8
2018-09-16T02:13:47.048Z,22.8
2018-09-16T02:14:36.260Z,22.8
2018-09-16T02:15:26.551Z,22.8
2018-09-16T02:16:17.873Z,22.8
2018-09-16T02:17:07.889Z,22.8
2018-09-16T02:17:57.095Z,22.8
2018-09-16T02:18:46.820Z,22.8
2018-09-16T02:19:38.053Z,22.8
2018-09-16T02:20:27.005Z,22.8
2018-09-16T02:21:18.418Z,22.8
2018-09-16T02:22:08.050Z,22.8
2018-09-16T02:22:58.327Z,22.8
2018-09-16T02:23:48.698Z,22.8
2018-09-16T02:24:38.408Z,22.8
2018-09-16T02:25:27.635Z,22.8
2018-09-16T02:26:17.967Z,22.8
2018-09-16T02:27:08.446Z,22.8
2018-09-16T02:27:57.922Z,22.8
2018-09-16T02:28:48.467Z,22.8
2018-09-16T02:29:38.210Z,22.8
2018-09-16T02:30:28.576Z,22.8
2018-09-16T02:31:18.357Z,22.8
2018-09-16T02:32:09.199Z,22.8
2018-09-16T02:32:58.785Z,22.8
2018-09-16T02:33:49.144Z,22.8
2018-09-16T02:34:39.484Z,22.8
2018-09-16T02:35:28.956Z,22.8
2018-09-16T02:36:19.323Z,22.8
2018-09-16T02:37:09.701Z,22.8
2018-09-16T02:37:59.476Z,22.8
2018-09-16T02:38:49.224Z,22.8
2018-09-16T02:39:39.574Z,22.8
2018-09-16T02:40:29.107Z,22.8
2018-09-16T02:41:19.417Z,22.8
2018-09-16T02:42:09.479Z,22.8
2018-09-16T02:42:59.440Z,22.8
2018-09-16T02:43:49.626Z,22.8
2018-09-16T02:44:39.066Z,22.8
2018-09-16T02:45:29.180Z,22.8
2018-09-16T02:46:19.599Z,22.8
2018-09-16T02:47:09.343Z,22.8
2018-09-16T02:47:59.046Z,22.8
2018-09-16T02:48:50.027Z,22.8
2018-09-16T02:49:40.046Z,22.8
2018-09-16T02:50:30.153Z,22.8
2018-09-16T02:51:19.887Z,22.8
2018-09-16T02:52:09.942Z,22.8
2018-09-16T02:53:00.589Z,22.8
2018-09-16T02:53:50.383Z,22.8
2018-09-16T02:54:40.430Z,22.8
2018-09-16T02:55:30.784Z,22.8
2018-09-16T02:56:20.538Z,22.8
2018-09-16T02:57:10.340Z,22.8
2018-09-16T02:58:00.375Z,22.8
2018-09-16T02:58:51.256Z,22.8
2018-09-16T02:59:41.107Z,22.8
2018-09-16T03:00:31.336Z,22.8
2018-09-16T03:01:20.957Z,22.8
2018-09-16T03:02:10.743Z,22.8
2018-09-16T03:03:01.748Z,22.8
2018-09-16T03:03:51.172Z,22.8
2018-09-16T03:04:41.487Z,22.8
2018-09-16T03:05:31.830Z,22.8
2018-09-16T03:06:21.076Z,22.8
2018-09-16T03:07:11.169Z,22.8
2018-09-16T03:08:01.242Z,22.7
2018-09-16T03:08:50.918Z,22.8
2018-09-16T03:09:41.595Z,22.8
2018-09-16T03:10:31.725Z,22.8
2018-09-16T03:11:22.202Z,22.7
2018-09-16T03:12:11.477Z,22.8
2018-09-16T03:13:02.211Z,22.8
2018-09-16T03:13:52.247Z,22.8
2018-09-16T03:14:41.774Z,22.7
2018-09-16T03:15:31.739Z,22.7
2018-09-16T03:16:21.818Z,22.7
2018-09-16T03:17:12.424Z,22.7
2018-09-16T03:18:01.865Z,22.7
2018-09-16T03:18:51.732Z,22.7
2018-09-16T03:19:42.004Z,22.7
2018-09-16T03:20:32.640Z,22.7
2018-09-16T03:21:22.161Z,22.7
2018-09-16T03:22:11.943Z,22.7
2018-09-16T03:23:02.672Z,22.7
2018-09-16T03:23:52.946Z,22.7
2018-09-16T03:24:42.739Z,22.7
2018-09-16T03:25:33.933Z,22.7
2018-09-16T03:26:22.864Z,22.7
2018-09-16T03:27:12.599Z,22.7
2018-09-16T03:28:02.633Z,22.7
2018-09-16T03:28:52.698Z,22.7
2018-09-16T03:29:43.188Z,22.7
2018-09-16T03:30:33.578Z,22.7
2018-09-16T03:31:22.714Z,22.7
2018-09-16T03:32:13.672Z,22.7
2018-09-16T03:33:03.696Z,22.7
2018-09-16T03:33:53.080Z,22.7
2018-09-16T03:34:43.169Z,22.7
2018-09-16T03:35:34.295Z,22.7
2018-09-16T03:36:22.795Z,22.7
2018-09-16T03:37:13.953Z,22.7
2018-09-16T03:38:03.978Z,22.7
2018-09-16T03:38:53.481Z,22.7
2018-09-16T03:39:43.841Z,22.7
2018-09-16T03:40:34.383Z,22.7
2018-09-16T03:41:24.440Z,22.7
2018-09-16T03:42:13.774Z,22.7
2018-09-16T03:43:03.812Z,22.7
2018-09-16T03:43:54.225Z,22.6
2018-09-16T03:44:44.525Z,22.7
2018-09-16T03:45:34.867Z,22.7
2018-09-16T03:46:24.435Z,22.7
2018-09-16T03:47:14.427Z,22.7
2018-09-16T03:48:03.608Z,22.7
2018-09-16T03:48:54.288Z,22.7
2018-09-16T03:49:44.670Z,22.6
2018-09-16T03:50:35.079Z,22.6
2018-09-16T03:51:25.055Z,22.7
2018-09-16T03:52:14.537Z,22.7
2018-09-16T03:53:04.580Z,22.7
2018-09-16T03:53:54.634Z,22.6
2018-09-16T03:54:45.045Z,22.6
2018-09-16T03:55:35.994Z,22.6
2018-09-16T03:56:25.291Z,22.6
2018-09-16T03:57:14.881Z,22.6
2018-09-16T03:58:04.957Z,22.6
2018-09-16T03:58:55.856Z,22.6
2018-09-16T03:59:45.039Z,22.6
2018-09-16T04:00:35.966Z,22.6
2018-09-16T04:01:25.809Z,22.6
2018-09-16T04:02:15.859Z,22.6
2018-09-16T04:03:05.628Z,22.6
2018-09-16T04:03:55.983Z,22.6
2018-09-16T04:04:45.740Z,22.6
2018-09-16T04:05:36.089Z,22.6
2018-09-16T04:06:25.929Z,22.6
2018-09-16T04:07:15.948Z,22.6
2018-09-16T04:08:06.331Z,22.6
2018-09-16T04:08:55.498Z,22.6
2018-09-16T04:09:46.137Z,22.6
2018-09-16T04:10:36.786Z,22.6
2018-09-16T04:11:26.293Z,22.6
2018-09-16T04:12:16.596Z,22.6
2018-09-16T04:13:06.058Z,22.6
2018-09-16T04:13:57.271Z,22.6
2018-09-16T04:14:46.815Z,22.6
2018-09-16T04:15:36.266Z,22.6
2018-09-16T04:16:26.936Z,22.6
2018-09-16T04:17:16.738Z,22.6
2018-09-16T04:18:06.776Z,22.6
2018-09-16T04:18:56.843Z,22.6
2018-09-16T04:19:46.866Z,22.6
2018-09-16T04:20:36.638Z,22.6
2018-09-16T04:21:27.306Z,22.6
2018-09-16T04:22:17.109Z,22.6
2018-09-16T04:23:07.124Z,22.6
2018-09-16T04:23:57.483Z,22.6
2018-09-16T04:24:47.558Z,22.6
2018-09-16T04:25:37.007Z,22.6
2018-09-16T04:26:27.612Z,22.6
2018-09-16T04:27:17.588Z,22.6
2018-09-16T04:28:07.868Z,22.6
2018-09-16T04:28:58.162Z,22.6
2018-09-16T04:29:47.450Z,22.6
2018-09-16T04:30:37.545Z,22.6
2018-09-16T04:31:27.649Z,22.6
2018-09-16T04:32:18.453Z,22.6
2018-09-16T04:33:08.200Z,22.6
2018-09-16T04:33:57.110Z,22.6
2018-09-16T04:34:48.345Z,22.6
2018-09-16T04:35:38.087Z,22.6
2018-09-16T04:36:28.237Z,22.6
2018-09-16T04:37:17.963Z,22.6
2018-09-16T04:38:08.821Z,22.6
2018-09-16T04:38:58.461Z,22.6
2018-09-16T04:39:48.694Z,22.6
2018-09-16T04:40:38.472Z,22.6
2018-09-16T04:41:28.497Z,22.6
2018-09-16T04:42:18.044Z,22.6
2018-09-16T04:43:08.611Z,22.6
2018-09-16T04:43:59.526Z,22.6
2018-09-16T04:44:49.257Z,22.6
2018-09-16T04:45:38.285Z,22.6
2018-09-16T04:46:28.302Z,22.6
2018-09-16T04:47:19.026Z,22.6
2018-09-16T04:48:09.028Z,22.6
2018-09-16T04:48:59.370Z,22.6
2018-09-16T04:49:49.717Z,22.6
2018-09-16T04:50:39.791Z,22.6
2018-09-16T04:51:29.826Z,22.6
2018-09-16T04:52:18.823Z,22.6
2018-09-16T04:53:09.773Z,22.6
2018-09-16T04:53:59.145Z,22.6
2018-09-16T04:54:50.075Z,22.6
2018-09-16T04:55:39.608Z,22.6
2018-09-16T04:56:29.653Z,22.6
2018-09-16T04:57:19.535Z,22.6
2018-09-16T04:58:09.508Z,22.6
2018-09-16T04:58:59.565Z,22.6
2018-09-16T04:59:49.772Z,22.6
2018-09-16T05:00:40.116Z,22.6
2018-09-16T05:01:30.571Z,22.6
2018-09-16T05:02:20.384Z,22.6
2018-09-16T05:03:09.887Z,22.6
2018-09-16T05:04:00.790Z,22.6
2018-09-16T05:04:50.285Z,22.6
2018-09-16T05:05:40.640Z,22.6
2018-09-16T05:06:30.379Z,22.6
2018-09-16T05:07:20.790Z,22.6
2018-09-16T05:25:04.006Z,22.7
2018-09-16T05:25:54.334Z,22.7
2018-09-16T05:26:43.668Z,22.8
2018-09-16T05:27:34.336Z,22.7
2018-09-16T05:28:24.071Z,22.8
2018-09-16T05:29:14.428Z,22.8
2018-09-16T05:30:04.914Z,22.8
2018-09-16T05:30:54.059Z,22.8
2018-09-16T05:31:43.836Z,22.8
2018-09-16T05:32:34.920Z,22.8
2018-09-16T05:33:24.433Z,22.8
2018-09-16T05:34:14.501Z,22.8
2018-09-16T05:35:04.568Z,22.8
2018-09-16T05:35:54.945Z,22.8
2018-09-16T05:36:44.142Z,22.8
2018-09-16T05:37:34.538Z,22.8
2018-09-16T05:38:23.653Z,22.8
2018-09-16T05:39:14.873Z,22.8
2018-09-16T05:40:04.637Z,22.8
2018-09-16T05:40:55.595Z,22.8
2018-09-16T05:41:45.295Z,22.8
2018-09-16T05:42:34.269Z,22.8
2018-09-16T05:43:25.943Z,22.8
2018-09-16T05:44:14.693Z,22.8
2018-09-16T05:45:05.883Z,22.8
2018-09-16T05:45:55.377Z,22.8
2018-09-16T05:46:45.403Z,22.8
2018-09-16T05:47:34.647Z,22.8
2018-09-16T05:48:25.562Z,22.8
2018-09-16T05:49:15.628Z,22.7
2018-09-16T05:50:05.738Z,22.7
2018-09-16T05:50:56.327Z,22.6
2018-09-16T05:51:46.409Z,22.6
2018-09-16T05:52:36.346Z,22.6
2018-09-16T05:53:29.241Z,22.6
2018-09-16T05:54:15.986Z,22.6
2018-09-16T05:55:06.049Z,22.6
2018-09-16T05:55:56.701Z,22.6
2018-09-16T05:56:45.838Z,22.6
2018-09-16T05:57:36.595Z,22.6
2018-09-16T05:58:26.052Z,22.6
2018-09-16T05:59:17.279Z,22.6
2018-09-16T06:00:06.550Z,22.6
2018-09-16T06:00:57.342Z,22.6
2018-09-16T06:01:46.141Z,22.6
2018-09-16T06:02:36.429Z,22.6
2018-09-16T06:03:25.950Z,22.6
2018-09-16T06:04:16.829Z,22.6
2018-09-16T06:05:07.282Z,22.6
2018-09-16T06:05:57.076Z,22.6
2018-09-16T06:06:47.857Z,22.6
2018-09-16T06:07:36.410Z,22.6
2018-09-16T06:08:26.696Z,22.6
2018-09-16T06:09:17.224Z,22.6
2018-09-16T06:10:07.831Z,22.6
2018-09-16T06:10:58.804Z,22.6
2018-09-16T06:11:47.288Z,22.6
2018-09-16T06:12:37.409Z,22.6
2018-09-16T06:13:26.883Z,22.6
2018-09-16T06:14:17.945Z,22.6
2018-09-16T06:15:07.985Z,22.6
2018-09-16T06:15:57.976Z,22.6
2018-09-16T06:16:47.764Z,22.6
2018-09-16T06:17:38.038Z,22.6
2018-09-16T06:18:27.294Z,22.7
2018-09-16T06:19:17.774Z,22.6
2018-09-16T06:20:08.064Z,22.7
2018-09-16T06:20:57.426Z,22.6
2018-09-16T06:21:48.665Z,22.7
2018-09-16T06:22:39.286Z,22.6
2018-09-16T06:23:28.699Z,22.7
2018-09-16T06:24:18.293Z,22.7
2018-09-16T06:25:08.400Z,22.7
2018-09-16T06:25:58.975Z,22.7
2018-09-16T06:26:47.990Z,22.7
2018-09-16T06:27:37.725Z,22.7
2018-09-16T06:28:27.795Z,22.7
2018-09-16T06:29:17.880Z,22.7
2018-09-16T06:30:08.255Z,22.7
2018-09-16T06:30:58.628Z,22.7
2018-09-16T06:31:48.945Z,22.7
2018-09-16T06:32:39.247Z,22.7
2018-09-16T06:33:29.355Z,22.7
2018-09-16T06:34:19.122Z,22.7
2018-09-16T06:35:08.602Z,22.7
2018-09-16T06:35:58.964Z,22.7
2018-09-16T06:36:49.259Z,22.7
2018-09-16T06:37:39.118Z,22.7
2018-09-16T06:38:29.709Z,22.7
2018-09-16T06:39:19.584Z,22.7
2018-09-16T06:40:08.974Z,22.7
2018-09-16T06:40:59.346Z,22.7
2018-09-16T06:41:50.190Z,22.7
2018-09-16T06:42:39.419Z,22.7
2018-09-16T06:43:28.649Z,22.7
2018-09-16T06:44:19.603Z,22.7
2018-09-16T06:45:09.924Z,22.7
2018-09-16T06:45:59.406Z,22.6
2018-09-16T06:46:49.459Z,22.7
2018-09-16T06:47:39.842Z,22.7
2018-09-16T06:48:30.213Z,22.7
2018-09-16T06:49:20.497Z,22.7
2018-09-16T06:50:10.308Z,22.7
2018-09-16T06:51:02.187Z,22.7
2018-09-16T06:51:50.151Z,22.7
2018-09-16T06:52:39.701Z,22.7
2018-09-16T06:53:29.835Z,22.7
2018-09-16T06:54:19.721Z,22.7
2018-09-16T06:55:09.421Z,22.7
2018-09-16T06:55:59.997Z,22.7
2018-09-16T06:56:49.776Z,22.7
2018-09-16T06:57:40.619Z,22.7
2018-09-16T06:58:30.673Z,22.6
2018-09-16T06:59:20.148Z,22.7
2018-09-16T07:00:11.305Z,22.7
2018-09-16T07:01:01.728Z,22.7
2018-09-16T07:01:49.841Z,22.7
2018-09-16T07:02:40.743Z,22.7
2018-09-16T07:03:30.783Z,22.7
2018-09-16T07:04:21.339Z,22.7
2018-09-16T07:05:10.625Z,22.7
2018-09-16T07:06:00.458Z,22.7
2018-09-16T07:06:51.126Z,22.7
2018-09-16T07:07:41.616Z,22.7
2018-09-16T07:08:32.745Z,22.7
2018-09-16T07:09:21.512Z,22.7
2018-09-16T07:10:12.330Z,22.7
2018-09-16T07:11:02.122Z,22.7
2018-09-16T07:11:51.637Z,22.7
2018-09-16T07:12:41.246Z,22.7
2018-09-16T07:13:32.262Z,22.7
2018-09-16T07:14:23.271Z,22.7
2018-09-16T07:15:12.035Z,22.7
2018-09-16T07:16:01.725Z,22.7
2018-09-16T07:16:52.555Z,22.7
2018-09-16T07:17:42.686Z,22.7
2018-09-16T07:18:33.266Z,22.7
2018-09-16T07:19:22.062Z,22.7
2018-09-16T07:20:13.908Z,22.7
2018-09-16T07:21:01.419Z,22.7
2018-09-16T07:21:52.700Z,22.7
2018-09-16T07:22:42.149Z,22.7
2018-09-16T07:23:32.659Z,22.7
2018-09-16T07:24:22.578Z,22.7
2018-09-16T07:25:12.317Z,22.7
2018-09-16T07:26:02.674Z,22.7
2018-09-16T07:26:54.015Z,22.7
2018-09-16T07:27:42.852Z,22.7
2018-09-16T07:28:32.682Z,22.7
2018-09-16T07:29:22.951Z,22.7
2018-09-16T07:30:13.419Z,22.7
2018-09-16T07:31:03.614Z,22.7
2018-09-16T07:31:53.124Z,22.7
2018-09-16T07:32:42.511Z,22.7
2018-09-16T07:33:32.756Z,22.6
2018-09-16T07:34:23.544Z,22.7
2018-09-16T07:35:12.845Z,22.7
2018-09-16T07:36:03.261Z,22.7
2018-09-16T07:36:52.794Z,22.7
2018-09-16T07:37:42.871Z,22.7
2018-09-16T07:38:33.185Z,22.7
2018-09-16T07:39:23.969Z,22.7
2018-09-16T07:40:14.303Z,22.7
2018-09-16T07:41:03.063Z,22.7
2018-09-16T07:41:53.676Z,22.7
2018-09-16T07:42:43.224Z,22.7
2018-09-16T07:43:34.003Z,22.7
2018-09-16T07:44:23.646Z,22.7
2018-09-16T07:45:14.996Z,22.7
2018-09-16T07:46:04.242Z,22.7
2018-09-16T07:46:54.796Z,22.7
2018-09-16T07:47:44.658Z,22.7
2018-09-16T07:48:34.423Z,22.7
2018-09-16T07:49:25.039Z,22.7
2018-09-16T07:50:14.530Z,22.7
2018-09-16T07:51:04.641Z,22.7
2018-09-16T07:51:55.497Z,22.7
2018-09-16T07:52:44.088Z,22.7
2018-09-16T07:53:34.204Z,22.7
2018-09-16T07:54:24.428Z,22.7
2018-09-16T07:55:13.636Z,22.7
2018-09-16T07:56:04.405Z,22.7
2018-09-16T07:56:55.083Z,22.7
2018-09-16T07:57:45.022Z,22.7
2018-09-16T07:58:34.901Z,22.7
2018-09-16T07:59:24.672Z,22.7
2018-09-16T08:00:14.729Z,22.7
2018-09-16T08:01:04.648Z,22.7
2018-09-16T08:01:55.158Z,22.7
2018-09-16T08:02:44.690Z,22.7
2018-09-16T08:03:34.999Z,22.7
2018-09-16T08:04:25.310Z,22.7
2018-09-16T08:05:15.373Z,22.7
2018-09-16T08:06:06.849Z,22.7
2018-09-16T08:06:55.817Z,22.7
2018-09-16T08:07:45.052Z,22.7
2018-09-16T08:08:35.677Z,22.7
2018-09-16T08:09:25.507Z,22.7
2018-09-16T08:10:15.844Z,22.7
2018-09-16T08:11:05.850Z,22.7
2018-09-16T08:11:56.014Z,22.7
2018-09-16T08:12:46.081Z,22.7
2018-09-16T08:13:37.053Z,22.7
2018-09-16T08:14:25.940Z,22.7
2018-09-16T08:15:16.567Z,22.7
2018-09-16T08:16:06.595Z,22.7
2018-09-16T08:16:56.886Z,22.7
2018-09-16T08:17:47.486Z,22.7
2018-09-16T08:18:36.557Z,22.7
2018-09-16T08:19:26.572Z,22.8
2018-09-16T08:20:16.530Z,22.7
2018-09-16T08:21:08.603Z,22.7
2018-09-16T08:21:56.078Z,22.8
2018-09-16T08:22:48.156Z,22.7
2018-09-16T08:23:39.008Z,22.8
2018-09-16T08:24:27.153Z,22.8
2018-09-16T08:25:16.378Z,22.8
2018-09-16T08:26:07.290Z,22.8
2018-09-16T08:26:57.936Z,22.8
2018-09-16T08:27:48.054Z,22.8
2018-09-16T08:28:39.794Z,22.8
2018-09-16T08:29:27.078Z,22.8
2018-09-16T08:30:18.219Z,22.8
2018-09-16T08:31:07.933Z,22.8
2018-09-16T08:31:57.074Z,22.8
2018-09-16T08:32:47.781Z,22.8
2018-09-16T08:33:38.126Z,22.8
2018-09-16T08:34:27.623Z,22.8
2018-09-16T08:35:18.521Z,22.8
2018-09-16T08:36:08.028Z,22.8
2018-09-16T08:36:58.315Z,22.8
2018-09-16T08:37:48.422Z,22.8
2018-09-16T08:38:38.212Z,22.8
2018-09-16T08:39:28.293Z,22.8
2018-09-16T08:40:18.676Z,22.8
2018-09-16T08:41:07.832Z,22.8
2018-09-16T08:41:58.948Z,22.8
2018-09-16T08:42:47.962Z,22.8
2018-09-16T08:43:38.313Z,22.8
2018-09-16T08:44:28.112Z,22.8
2018-09-16T08:45:19.258Z,22.8
2018-09-16T08:46:08.800Z,22.8
2018-09-16T08:46:58.892Z,22.8
2018-09-16T08:47:48.069Z,22.8
2018-09-16T08:48:39.173Z,22.8
2018-09-16T08:49:28.725Z,22.8
2018-09-16T08:50:18.817Z,22.8
2018-09-16T08:51:08.860Z,22.8
2018-09-16T08:51:58.749Z,22.8
2018-09-16T08:52:47.936Z,22.8
2018-09-16T08:53:39.354Z,22.8
2018-09-16T08:54:28.572Z,22.8
2018-09-16T08:55:19.718Z,22.8
2018-09-16T08:56:09.543Z,22.8
2018-09-16T08:56:59.583Z,22.8
2018-09-16T08:57:49.534Z,22.8
2018-09-16T08:58:40.149Z,22.8
2018-09-16T08:59:29.519Z,22.8
2018-09-16T09:00:18.686Z,22.8
2018-09-16T09:01:10.163Z,22.8
2018-09-16T09:02:00.013Z,22.8
2018-09-16T09:02:49.479Z,22.8
2018-09-16T09:03:40.114Z,22.8
2018-09-16T09:04:31.079Z,22.8
2018-09-16T09:05:20.536Z,22.8
2018-09-16T09:06:09.703Z,22.8
2018-09-16T09:07:00.112Z,22.8
2018-09-16T09:07:49.990Z,22.8
2018-09-16T09:08:39.648Z,22.8
2018-09-16T09:09:30.305Z,22.8
2018-09-16T09:10:20.890Z,22.8
2018-09-16T09:11:11.386Z,22.8
2018-09-16T09:12:02.246Z,22.8
2018-09-16T09:12:50.062Z,22.8
2018-09-16T09:13:40.584Z,22.8
2018-09-16T09:14:32.845Z,22.8
2018-09-16T09:15:19.640Z,22.8
2018-09-16T09:16:10.558Z,22.8
2018-09-16T09:17:00.864Z,22.8
2018-09-16T09:17:50.899Z,22.8
2018-09-16T09:18:41.428Z,22.8
2018-09-16T09:19:31.511Z,22.9
2018-09-16T09:20:19.819Z,22.9
2018-09-16T09:21:10.584Z,22.8
2018-09-16T09:22:02.087Z,22.9
2018-09-16T09:22:51.571Z,22.9
2018-09-16T09:39:32.996Z,22.9
2018-09-16T09:40:21.718Z,22.9
2018-09-16T09:41:11.820Z,22.9
2018-09-16T09:42:02.110Z,22.9
2018-09-16T09:42:53.841Z,22.9
2018-09-16T09:43:42.839Z,22.9
2018-09-16T09:44:32.887Z,22.9
2018-09-16T09:45:21.842Z,22.9
2018-09-16T09:46:13.001Z,22.9
2018-09-16T09:47:02.824Z,22.9
2018-09-16T09:47:52.863Z,22.9
2018-09-16T09:48:43.255Z,22.9
2018-09-16T09:49:32.986Z,22.9
2018-09-16T09:50:22.321Z,22.9
2018-09-16T09:51:13.340Z,23
2018-09-16T09:52:02.382Z,22.9
2018-09-16T09:52:53.239Z,23
2018-09-16T09:53:42.813Z,23
2018-09-16T09:54:33.644Z,23
2018-09-16T09:55:22.861Z,23
2018-09-16T09:56:13.227Z,23
2018-09-16T09:57:03.165Z,23
2018-09-16T09:57:54.082Z,22.9
2018-09-16T09:58:44.790Z,23
2018-09-16T09:59:35.441Z,23
2018-09-16T10:00:24.512Z,23
2018-09-16T10:01:14.456Z,23
2018-09-16T10:02:03.672Z,23
2018-09-16T10:02:54.011Z,23
2018-09-16T10:03:43.748Z,23
2018-09-16T10:04:33.644Z,23
2018-09-16T10:05:25.302Z,23.1
2018-09-16T10:06:14.945Z,23
2018-09-16T10:07:04.573Z,23.1
2018-09-16T10:07:54.936Z,23.1
2018-09-16T10:08:44.438Z,23.1
2018-09-16T10:09:34.488Z,23.1
2018-09-16T10:10:24.839Z,23.1
2018-09-16T10:11:14.909Z,23.1
2018-09-16T10:12:04.408Z,23.1
2018-09-16T10:12:54.740Z,23.1
2018-09-16T10:13:44.655Z,23.1
2018-09-16T10:14:36.526Z,23.1
2018-09-16T10:15:25.255Z,23.1
2018-09-16T10:16:15.357Z,23.1
2018-09-16T10:17:05.152Z,23.1
2018-09-16T10:17:54.644Z,23.1
2018-09-16T10:18:45.490Z,23.1
2018-09-16T10:19:35.845Z,23.1
2018-09-16T10:20:25.674Z,23.1
2018-09-16T10:21:15.393Z,23.1
2018-09-16T10:22:05.450Z,23.1
2018-09-16T10:22:55.504Z,23.1
2018-09-16T10:23:45.914Z,23.1
2018-09-16T10:24:35.572Z,23.1
2018-09-16T10:25:26.216Z,23.1
2018-09-16T10:26:16.404Z,23.1
2018-09-16T10:27:05.572Z,23.1
2018-09-16T10:27:56.164Z,23.1
2018-09-16T10:28:45.381Z,23.1
2018-09-16T10:29:36.009Z,23.1
2018-09-16T10:30:26.884Z,23.1
2018-09-16T10:31:16.503Z,23.1
2018-09-16T10:32:05.973Z,23.1
2018-09-16T10:32:56.513Z,23.2
2018-09-16T10:33:46.041Z,23.2
2018-09-16T10:34:36.386Z,23.2
2018-09-16T10:35:27.063Z,23.2
2018-09-16T10:36:16.765Z,23.2
2018-09-16T10:37:06.679Z,23.2
2018-09-16T10:37:56.361Z,23.2
2018-09-16T10:38:46.699Z,23.2
2018-09-16T10:39:36.788Z,23.2
2018-09-16T10:40:27.588Z,23.2
2018-09-16T10:41:18.571Z,23.3
2018-09-16T10:42:08.290Z,23.2
2018-09-16T10:42:57.873Z,23.2
2018-09-16T10:43:47.399Z,23.3
2018-09-16T10:44:37.243Z,23.3
2018-09-16T10:45:27.210Z,23.2
2018-09-16T10:46:17.530Z,23.3
2018-09-16T10:47:08.281Z,23.3
2018-09-16T10:47:58.011Z,23.3
2018-09-16T10:48:46.935Z,23.3
2018-09-16T10:49:37.277Z,23.3
2018-09-16T10:50:27.675Z,23.3
2018-09-16T10:51:18.045Z,23.3
2018-09-16T10:52:08.545Z,23.2
2018-09-16T10:52:58.390Z,23.3
2018-09-16T10:53:48.423Z,23.3
2018-09-16T10:54:37.922Z,23.3
2018-09-16T10:55:28.535Z,23.2
2018-09-16T10:56:18.354Z,23.3
2018-09-16T10:57:08.155Z,23.3
2018-09-16T10:57:58.748Z,23.3
2018-09-16T10:58:48.319Z,23.3
2018-09-16T10:59:37.834Z,23.3
2018-09-16T11:00:28.382Z,23.3
2018-09-16T11:01:18.717Z,23.3
2018-09-16T11:02:08.522Z,23.3
2018-09-16T11:02:58.237Z,23.3
2018-09-16T11:03:48.892Z,23.3
2018-09-16T11:04:38.595Z,23.3
2018-09-16T11:05:28.890Z,23.3
2018-09-16T11:06:19.492Z,23.3
2018-09-16T11:07:08.416Z,23.3
2018-09-16T11:08:00.074Z,23.3
2018-09-16T11:08:49.584Z,23.3
2018-09-16T11:09:39.086Z,23.3
2018-09-16T11:10:28.923Z,23.3
2018-09-16T11:11:19.277Z,23.3
2018-09-16T11:12:09.882Z,23.3
2018-09-16T11:13:00.426Z,23.3
2018-09-16T11:13:49.411Z,23.3
2018-09-16T11:14:39.233Z,23.3
2018-09-16T11:15:29.823Z,23.3
2018-09-16T11:16:19.399Z,23.3
2018-09-16T11:17:09.949Z,23.3
2018-09-16T11:18:00.256Z,23.3
2018-09-16T11:18:50.297Z,23.3
2018-09-16T11:19:39.535Z,23.3
2018-09-16T11:20:29.618Z,23.3
2018-09-16T11:21:19.985Z,23.3
2018-09-16T11:22:11.020Z,23.3
2018-09-16T11:23:00.328Z,23.3
2018-09-16T11:23:51.051Z,23.3
2018-09-16T11:24:40.240Z,23.3
2018-09-16T11:25:29.526Z,23.3
2018-09-16T11:26:19.838Z,23.3
2018-09-16T11:27:10.012Z,23.3
2018-09-16T11:27:59.727Z,23.3
2018-09-16T11:28:50.179Z,23.3
2018-09-16T11:29:40.636Z,23.3
2018-09-16T11:30:30.392Z,23.3
2018-09-16T11:31:20.748Z,23.3
2018-09-16T11:32:10.557Z,23.3
2018-09-16T11:33:01.350Z,23.3
2018-09-16T11:33:50.997Z,23.3
2018-09-16T11:34:40.938Z,23.3
2018-09-16T11:35:31.795Z,23.3
2018-09-16T11:36:21.663Z,23.3
2018-09-16T11:37:11.429Z,23.3
2018-09-16T11:38:00.392Z,23.3
2018-09-16T11:38:52.072Z,23.3
2018-09-16T11:39:41.200Z,23.3
2018-09-16T11:40:30.437Z,23.3
2018-09-16T11:41:21.487Z,23.3
2018-09-16T11:42:12.129Z,23.3
2018-09-16T11:43:01.894Z,23.3
2018-09-16T11:43:51.757Z,23.3
2018-09-16T11:44:41.961Z,23.3
2018-09-16T11:45:32.374Z,23.3
2018-09-16T11:46:21.298Z,23.3
2018-09-16T11:47:11.960Z,23.3
2018-09-16T11:48:02.033Z,23.3
2018-09-16T11:48:52.855Z,23.3
2018-09-16T11:49:42.205Z,23.3
2018-09-16T11:50:31.635Z,23.3
2018-09-16T11:51:21.680Z,23.3
2018-09-16T11:52:11.810Z,23.3
2018-09-16T11:53:02.648Z,23.3
2018-09-16T11:53:52.462Z,23.3
2018-09-16T11:54:42.287Z,23.3
2018-09-16T11:55:32.567Z,23.3
2018-09-16T11:56:22.327Z,23.3
2018-09-16T11:57:12.425Z,23.3
2018-09-16T11:58:03.037Z,23.3
2018-09-16T11:58:53.116Z,23.3
2018-09-16T11:59:43.724Z,23.3